createdAt,value
2019-04-10T00:01:20.593Z,101755.77
2019-04-10T00:03:51.929Z,101751.77
2019-04-10T00:06:23.769Z,101751.31
2019-04-10T00:08:55.421Z,101750.44
2019-04-10T00:11:26.991Z,101754.39
2019-04-10T00:13:58.736Z,101759.27
2019-04-10T00:16:30.105Z,101761.00
2019-04-10T00:19:02.320Z,101758.41
2019-04-10T00:21:33.699Z,101754.00
2019-04-10T00:24:06.024Z,101761.05
2019-04-10T00:26:39.510Z,101762.88
2019-04-10T00:29:12.010Z,101756.73
2019-04-10T00:31:44.503Z,101758.05
2019-04-10T00:34:15.966Z,101762.04
2019-04-10T00:36:47.516Z,101761.55
2019-04-10T00:39:22.315Z,101755.34
2019-04-10T00:41:56.809Z,101758.98
2019-04-10T00:44:28.237Z,101764.63
2019-04-10T00:46:59.481Z,101761.53
2019-04-10T00:49:31.469Z,101758.86
2019-04-10T00:52:03.884Z,101757.08
2019-04-10T00:54:42.175Z,101759.39
2019-04-10T00:57:13.492Z,101758.02
2019-04-10T00:59:45.720Z,101758.91
2019-04-10T01:02:16.978Z,101755.75
2019-04-10T01:04:48.849Z,101759.27
2019-04-10T01:07:32.575Z,101757.15
2019-04-10T01:09:53.454Z,101759.81
2019-04-10T01:12:25.128Z,101757.56
2019-04-10T01:14:56.534Z,101755.73
2019-04-10T01:17:28.533Z,101765.03
2019-04-10T01:20:00.632Z,101761.06
2019-04-10T01:22:32.933Z,101761.50
2019-04-10T01:25:04.594Z,101759.67
2019-04-10T01:27:36.117Z,101761.47
2019-04-10T01:30:10.498Z,101755.23
2019-04-10T01:32:41.950Z,101758.86
2019-04-10T01:35:13.986Z,101763.78
2019-04-10T01:37:51.906Z,101750.95
2019-04-10T01:40:19.160Z,101761.08
2019-04-10T01:43:02.303Z,101752.64
2019-04-10T01:45:27.256Z,101751.30
2019-04-10T01:47:59.542Z,101749.63
2019-04-10T01:50:33.186Z,101744.31
2019-04-10T01:53:04.459Z,101743.42
2019-04-10T01:55:35.837Z,101742.50
2019-04-10T01:58:11.419Z,101745.56
2019-04-10T02:00:46.289Z,101749.56
2019-04-10T02:03:18.095Z,101750.47
2019-04-10T02:05:49.971Z,101759.27
2019-04-10T02:08:21.509Z,101748.66
2019-04-10T02:10:52.910Z,101752.13
2019-04-10T02:13:25.209Z,101756.61
2019-04-10T02:15:56.834Z,101760.09
2019-04-10T02:18:28.216Z,101756.91
2019-04-10T02:20:59.429Z,101753.87
2019-04-10T02:23:30.888Z,101755.54
2019-04-10T02:26:03.237Z,101755.17
2019-04-10T02:28:36.042Z,101754.70
2019-04-10T02:31:07.476Z,101755.19
2019-04-10T02:33:38.921Z,101759.52
2019-04-10T02:36:10.841Z,101759.96
2019-04-10T02:38:59.315Z,101757.52
2019-04-10T02:41:17.410Z,101762.37
2019-04-10T02:43:48.712Z,101760.62
2019-04-10T02:46:22.023Z,101765.41
2019-04-10T02:48:54.275Z,101761.38
2019-04-10T02:51:27.061Z,101756.45
2019-04-10T02:54:00.451Z,101755.06
2019-04-10T02:56:32.715Z,101760.11
2019-04-10T02:59:05.185Z,101758.97
2019-04-10T03:01:37.940Z,101753.30
2019-04-10T03:04:11.396Z,101755.42
2019-04-10T03:06:42.891Z,101757.95
2019-04-10T03:09:28.948Z,101757.84
2019-04-10T03:11:47.586Z,101765.47
2019-04-10T03:14:19.058Z,101758.97
2019-04-10T03:16:53.120Z,101761.66
2019-04-10T03:19:25.513Z,101758.66
2019-04-10T03:21:57.688Z,101759.82
2019-04-10T03:24:31.650Z,101763.24
2019-04-10T03:27:03.771Z,101766.86
2019-04-10T03:29:38.266Z,101767.79
2019-04-10T03:32:54.563Z,101765.65
2019-04-10T03:35:27.524Z,101769.15
2019-04-10T03:37:59.399Z,101773.18
2019-04-10T03:40:31.346Z,101766.25
2019-04-10T03:43:03.543Z,101769.83
2019-04-10T03:45:34.999Z,101766.31
2019-04-10T03:48:06.684Z,101755.20
2019-04-10T03:50:37.850Z,101761.81
2019-04-10T03:53:09.697Z,101758.30
2019-04-10T03:55:41.059Z,101760.95
2019-04-10T03:58:15.632Z,101768.92
2019-04-10T04:00:47.168Z,101768.45
2019-04-10T04:03:18.475Z,101759.57
2019-04-10T04:05:49.728Z,101772.37
2019-04-10T04:08:21.591Z,101768.34
2019-04-10T04:10:53.654Z,101766.11
2019-04-10T04:13:25.755Z,101769.67
2019-04-10T04:15:58.117Z,101771.95
2019-04-10T04:18:29.493Z,101770.05
2019-04-10T04:21:01.523Z,101772.43
2019-04-10T04:23:34.039Z,101782.58
2019-04-10T04:26:05.626Z,101774.68
2019-04-10T04:28:37.258Z,101775.11
2019-04-10T04:31:09.416Z,101778.28
2019-04-10T04:33:41.121Z,101780.04
2019-04-10T04:36:12.471Z,101776.91
2019-04-10T04:38:43.906Z,101775.98
2019-04-10T04:41:15.444Z,101772.39
2019-04-10T04:43:48.415Z,101786.59
2019-04-10T04:46:20.558Z,101781.27
2019-04-10T04:48:52.306Z,101777.76
2019-04-10T04:51:25.860Z,101780.43
2019-04-10T04:53:56.940Z,101783.95
2019-04-10T04:56:29.179Z,101785.28
2019-04-10T04:59:01.450Z,101785.74
2019-04-10T05:01:33.695Z,101791.41
2019-04-10T05:04:06.759Z,101784.27
2019-04-10T05:06:38.285Z,101786.54
2019-04-10T05:09:09.909Z,101794.89
2019-04-10T05:11:44.794Z,101787.45
2019-04-10T05:14:16.008Z,101794.92
2019-04-10T05:16:47.832Z,101792.25
2019-04-10T05:19:19.161Z,101792.63
2019-04-10T05:21:50.614Z,101791.31
2019-04-10T05:24:22.042Z,101793.95
2019-04-10T05:26:53.601Z,101793.95
2019-04-10T05:29:28.308Z,101800.58
2019-04-10T05:31:58.828Z,101799.64
2019-04-10T05:34:30.166Z,101802.28
2019-04-10T05:37:01.796Z,101805.38
2019-04-10T05:39:40.615Z,101800.42
2019-04-10T05:42:06.419Z,101805.27
2019-04-10T05:44:38.207Z,101806.11
2019-04-10T05:47:10.317Z,101805.23
2019-04-10T05:49:41.717Z,101804.83
2019-04-10T05:52:13.466Z,101809.08
2019-04-10T05:54:47.207Z,101803.28
2019-04-10T05:57:20.287Z,101804.15
2019-04-10T05:59:52.657Z,101813.77
2019-04-10T06:02:25.100Z,101816.42
2019-04-10T06:04:56.653Z,101813.73
2019-04-10T06:07:27.798Z,101812.78
2019-04-10T06:10:04.335Z,101807.84
2019-04-10T06:12:32.382Z,101808.21
2019-04-10T06:15:04.334Z,101813.47
2019-04-10T06:17:38.633Z,101809.11
2019-04-10T06:20:11.184Z,101812.56
2019-04-10T06:22:43.839Z,101802.72
2019-04-10T06:25:16.364Z,101807.20
2019-04-10T06:27:51.177Z,101809.84
2019-04-10T06:30:22.488Z,101811.09
2019-04-10T06:32:53.968Z,101812.84
2019-04-10T06:35:26.155Z,101815.38
2019-04-10T06:37:57.419Z,101814.92
2019-04-10T06:40:29.486Z,101814.92
2019-04-10T06:43:02.751Z,101817.46
2019-04-10T06:45:34.060Z,101822.84
2019-04-10T06:48:06.838Z,101820.05
2019-04-10T06:50:39.189Z,101818.36
2019-04-10T06:53:11.515Z,101823.55
2019-04-10T06:55:42.782Z,101813.70
2019-04-10T06:58:15.828Z,101816.18
2019-04-10T07:00:53.230Z,101816.07
2019-04-10T07:03:23.232Z,101821.72
2019-04-10T07:06:06.361Z,101816.87
2019-04-10T07:09:27.063Z,101825.20
2019-04-10T07:12:01.748Z,101821.72
2019-04-10T07:14:36.287Z,101823.31
2019-04-10T07:17:07.499Z,101813.61
2019-04-10T07:19:41.485Z,101814.23
2019-04-10T07:22:14.663Z,101821.66
2019-04-10T07:24:46.182Z,101816.41
2019-04-10T07:27:19.588Z,101823.22
2019-04-10T07:29:54.997Z,101824.64
2019-04-10T07:32:24.358Z,101826.33
2019-04-10T07:34:59.126Z,101841.56
2019-04-10T07:37:29.653Z,101847.31
2019-04-10T07:40:04.216Z,101846.91
2019-04-10T07:42:39.738Z,101847.58
2019-04-10T07:45:09.668Z,101845.58
2019-04-10T07:47:41.928Z,101843.98
2019-04-10T07:50:14.282Z,101835.25
2019-04-10T07:52:46.051Z,101836.59
2019-04-10T07:55:17.275Z,101843.24
2019-04-10T07:57:50.010Z,101846.19
2019-04-10T08:00:22.228Z,101852.36
2019-04-10T08:02:53.675Z,101849.81
2019-04-10T08:05:25.135Z,101846.25
2019-04-10T08:07:57.492Z,101846.16
2019-04-10T08:10:29.095Z,101851.22
2019-04-10T08:13:01.364Z,101853.53
2019-04-10T08:15:33.726Z,101854.39
2019-04-10T08:18:06.595Z,101861.70
2019-04-10T08:20:38.740Z,101862.91
2019-04-10T08:23:10.190Z,101868.60
2019-04-10T08:25:43.114Z,101873.01
2019-04-10T08:28:15.600Z,101865.26
2019-04-10T08:30:46.896Z,101870.40
2019-04-10T08:33:18.217Z,101860.30
2019-04-10T08:35:49.665Z,101870.64
2019-04-10T08:38:21.776Z,101869.75
2019-04-10T08:40:54.396Z,101882.41
2019-04-10T08:43:27.066Z,101873.20
2019-04-10T08:45:58.923Z,101869.91
2019-04-10T08:48:31.497Z,101874.80
2019-04-10T08:51:03.258Z,101883.30
2019-04-10T08:53:36.212Z,101878.24
2019-04-10T08:56:07.657Z,101880.14
2019-04-10T08:58:39.513Z,101880.64
2019-04-10T09:01:13.304Z,101880.39
2019-04-10T09:03:48.913Z,101878.63
2019-04-10T09:06:21.348Z,101889.32
2019-04-10T09:08:53.096Z,101887.80
2019-04-10T09:11:29.737Z,101893.08
2019-04-10T09:14:01.045Z,101890.77
2019-04-10T09:16:32.940Z,101893.73
2019-04-10T09:19:04.468Z,101898.80
2019-04-10T09:21:37.344Z,101890.06
2019-04-10T09:24:10.407Z,101892.83
2019-04-10T09:26:41.779Z,101886.55
2019-04-10T09:29:14.068Z,101879.44
2019-04-10T09:31:46.093Z,101879.70
2019-04-10T09:34:17.953Z,101886.50
2019-04-10T09:36:51.468Z,101876.61
2019-04-10T09:39:23.327Z,101876.63
2019-04-10T09:41:54.590Z,101868.39
2019-04-10T09:44:25.882Z,101876.55
2019-04-10T09:46:57.878Z,101868.38
2019-04-10T09:49:35.590Z,101870.69
2019-04-10T09:52:02.738Z,101876.29
2019-04-10T09:54:36.850Z,101879.77
2019-04-10T09:57:09.104Z,101874.44
2019-04-10T09:59:41.243Z,101874.59
2019-04-10T10:02:13.276Z,101863.30
2019-04-10T10:04:45.902Z,101873.66
2019-04-10T10:07:18.412Z,101873.10
2019-04-10T10:09:51.442Z,101864.92
2019-04-10T10:12:23.628Z,101869.13
2019-04-10T10:14:57.559Z,101874.00
2019-04-10T10:17:30.858Z,101874.15
2019-04-10T10:20:03.676Z,101873.28
2019-04-10T10:22:36.930Z,101888.02
2019-04-10T10:25:09.497Z,101883.77
2019-04-10T10:27:40.888Z,101889.69
2019-04-10T10:30:13.454Z,101893.31
2019-04-10T10:32:45.595Z,101888.23
2019-04-10T10:35:16.972Z,101889.07
2019-04-10T10:37:48.499Z,101885.94
2019-04-10T10:40:20.050Z,101885.50
2019-04-10T10:42:54.005Z,101881.78
2019-04-10T10:45:25.399Z,101888.34
2019-04-10T10:47:56.779Z,101887.50
2019-04-10T10:50:28.954Z,101893.12
2019-04-10T10:53:01.929Z,101889.84
2019-04-10T10:55:33.838Z,101886.09
2019-04-10T10:58:05.820Z,101894.46
2019-04-10T11:00:37.254Z,101894.09
2019-04-10T11:03:09.905Z,101889.91
2019-04-10T11:05:42.313Z,101891.42
2019-04-10T11:08:13.731Z,101890.17
2019-04-10T11:10:50.460Z,101888.75
2019-04-10T11:13:20.032Z,101890.58
2019-04-10T11:15:52.508Z,101894.26
2019-04-10T11:18:24.735Z,101892.58
2019-04-10T11:21:02.929Z,101892.11
2019-04-10T11:23:30.573Z,101902.59
2019-04-10T11:26:02.301Z,101896.41
2019-04-10T11:28:34.271Z,101895.94
2019-04-10T11:31:06.975Z,101892.86
2019-04-10T11:33:39.908Z,101891.92
2019-04-10T11:36:12.473Z,101900.20
2019-04-10T11:38:45.345Z,101896.17
2019-04-10T11:41:18.961Z,101903.16
2019-04-10T11:43:52.620Z,101890.48
2019-04-10T11:46:31.008Z,101894.20
2019-04-10T11:49:00.865Z,101901.77
2019-04-10T11:51:34.239Z,101906.66
2019-04-10T11:54:11.024Z,101898.43
2019-04-10T11:56:38.766Z,101901.16
2019-04-10T11:59:12.362Z,101897.41
2019-04-10T12:01:44.816Z,101901.56
2019-04-10T12:04:19.270Z,101908.95
2019-04-10T12:06:53.565Z,101902.38
2019-04-10T12:10:08.525Z,101903.23
2019-04-10T12:11:59.415Z,101905.32
2019-04-10T12:14:31.910Z,101910.80
2019-04-10T12:17:03.504Z,101905.08
2019-04-10T12:19:34.822Z,101911.26
2019-04-10T12:22:07.376Z,101904.13
2019-04-10T12:24:38.938Z,101908.95
2019-04-10T12:27:10.408Z,101903.38
2019-04-10T12:29:42.629Z,101897.67
2019-04-10T12:32:14.597Z,101902.20
2019-04-10T12:34:46.557Z,101910.05
2019-04-10T12:37:17.819Z,101900.86
2019-04-10T12:39:49.485Z,101908.92
2019-04-10T12:42:21.849Z,101907.61
2019-04-10T12:44:53.221Z,101903.49
2019-04-10T12:47:24.445Z,101910.00
2019-04-10T12:49:56.907Z,101907.25
2019-04-10T12:52:30.268Z,101908.27
2019-04-10T12:55:02.119Z,101913.50
2019-04-10T12:57:33.683Z,101912.39
2019-04-10T13:00:07.993Z,101912.23
2019-04-10T13:02:39.600Z,101915.52
2019-04-10T13:05:13.353Z,101920.33
2019-04-10T13:07:45.587Z,101911.12
2019-04-10T13:10:16.915Z,101921.73
2019-04-10T13:12:49.203Z,101915.03
2019-04-10T13:15:21.403Z,101908.17
2019-04-10T13:17:53.282Z,101910.63
2019-04-10T13:20:25.962Z,101920.59
2019-04-10T13:22:58.299Z,101910.50
2019-04-10T13:25:32.933Z,101908.80
2019-04-10T13:28:05.409Z,101915.44
2019-04-10T13:30:46.944Z,101906.59
2019-04-10T13:33:12.219Z,101906.88
2019-04-10T13:35:43.548Z,101910.97
2019-04-10T13:38:23.968Z,101902.31
2019-04-10T13:40:48.137Z,101904.02
2019-04-10T13:43:20.028Z,101913.48
2019-04-10T13:45:54.164Z,101901.29
2019-04-10T13:48:27.180Z,101905.38
2019-04-10T13:50:59.065Z,101909.11
2019-04-10T13:53:30.645Z,101898.28
2019-04-10T13:56:02.032Z,101901.29
2019-04-10T13:58:33.328Z,101911.49
2019-04-10T14:01:07.203Z,101896.98
2019-04-10T14:03:41.513Z,101904.02
2019-04-10T14:06:13.599Z,101909.13
2019-04-10T14:09:04.704Z,101924.77
2019-04-10T14:11:19.296Z,101913.11
2019-04-10T14:13:52.409Z,101912.86
2019-04-10T14:16:24.479Z,101914.78
2019-04-10T14:18:57.100Z,101911.09
2019-04-10T14:21:29.083Z,101910.99
2019-04-10T14:24:03.465Z,101905.03
2019-04-10T14:26:58.013Z,101916.09
2019-04-10T14:29:32.083Z,101914.40
2019-04-10T14:32:07.146Z,101913.97
2019-04-10T14:34:38.785Z,101925.73
2019-04-10T14:37:13.699Z,101932.33
2019-04-10T14:42:16.545Z,101929.42
2019-04-10T14:44:48.641Z,101930.53
2019-04-10T14:47:20.651Z,101931.00
2019-04-10T14:49:53.656Z,101938.48
2019-04-10T14:52:25.458Z,101928.61
2019-04-10T14:54:57.664Z,101930.26
2019-04-10T14:57:28.935Z,101926.53
2019-04-10T15:00:00.439Z,101933.20
2019-04-10T15:02:32.770Z,101935.31
2019-04-10T15:05:10.045Z,101958.15
2019-04-10T15:07:42.734Z,101938.02
2019-04-10T15:10:16.738Z,101936.24
2019-04-10T15:12:48.082Z,101934.76
2019-04-10T15:15:20.552Z,101939.34
2019-04-10T15:17:52.024Z,101945.52
2019-04-10T15:20:23.393Z,101950.70
2019-04-10T15:22:54.921Z,101948.62
2019-04-10T15:25:29.113Z,101947.46
2019-04-10T15:28:00.643Z,101939.64
2019-04-10T15:30:32.854Z,101947.58
2019-04-10T15:33:04.543Z,101950.11
2019-04-10T15:35:38.782Z,101952.92
2019-04-10T15:38:10.009Z,101955.67
2019-04-10T15:40:42.099Z,101954.02
2019-04-10T15:43:13.639Z,101959.09
2019-04-10T15:45:46.243Z,101962.16
2019-04-10T15:48:18.843Z,101965.92
2019-04-10T15:50:50.178Z,101966.55
2019-04-10T15:53:22.997Z,101974.27
2019-04-10T15:55:54.434Z,101968.09
2019-04-10T15:58:25.736Z,101966.91
2019-04-10T16:00:59.409Z,101970.02
2019-04-10T16:03:34.542Z,101973.17
2019-04-10T16:06:06.403Z,101975.27
2019-04-10T16:08:38.622Z,101976.97
2019-04-10T16:11:21.522Z,101975.63
2019-04-10T16:13:54.918Z,101979.09
2019-04-10T16:16:48.887Z,101970.30
2019-04-10T16:19:40.098Z,101981.67
2019-04-10T16:22:24.233Z,101975.14
2019-04-10T16:24:57.608Z,101975.63
2019-04-10T16:27:30.481Z,101976.07
2019-04-10T16:30:03.794Z,101973.76
2019-04-10T16:32:35.683Z,101974.62
2019-04-10T16:35:07.542Z,101968.45
2019-04-10T16:37:39.836Z,101966.66
2019-04-10T16:40:13.254Z,101967.89
2019-04-10T16:42:44.698Z,101968.78
2019-04-10T16:45:16.311Z,101972.55
2019-04-10T16:47:47.899Z,101974.62
2019-04-10T16:50:19.541Z,101967.91
2019-04-10T16:52:51.456Z,101994.53
2019-04-10T16:55:22.834Z,101979.59
2019-04-10T16:57:54.217Z,101986.37
2019-04-10T17:00:26.935Z,101981.47
2019-04-10T17:03:01.871Z,101993.87
2019-04-10T17:05:35.027Z,101992.65
2019-04-10T17:08:07.646Z,101991.49
2019-04-10T17:10:39.071Z,101990.14
2019-04-10T17:13:10.736Z,101995.03
2019-04-10T17:15:43.944Z,101995.42
2019-04-10T17:18:15.245Z,101991.08
2019-04-10T17:20:46.933Z,101998.20
2019-04-10T17:23:20.327Z,101999.97
2019-04-10T17:25:53.069Z,101988.77
2019-04-10T17:28:28.208Z,101996.77
2019-04-10T17:31:00.255Z,101995.02
2019-04-10T17:33:32.329Z,102000.27
2019-04-10T17:36:04.296Z,102003.77
2019-04-10T17:38:38.933Z,102005.17
2019-04-10T17:41:11.219Z,102000.74
2019-04-10T17:43:43.450Z,102005.16
2019-04-10T17:46:19.393Z,102014.61
2019-04-10T17:48:51.736Z,102011.02
2019-04-10T17:51:25.879Z,102013.34
2019-04-10T17:53:57.966Z,102009.84
2019-04-10T17:56:30.585Z,102017.89
2019-04-10T17:59:02.372Z,102019.23
2019-04-10T18:01:34.764Z,102029.84
2019-04-10T18:04:07.615Z,102029.87
2019-04-10T18:06:39.568Z,102035.23
2019-04-10T18:09:11.737Z,102039.30
2019-04-10T18:11:44.353Z,102039.70
2019-04-10T18:14:15.861Z,102039.80
2019-04-10T18:16:47.769Z,102051.81
2019-04-10T18:19:19.200Z,102047.04
2019-04-10T18:21:51.013Z,102056.81
2019-04-10T18:24:26.763Z,102059.01
2019-04-10T18:27:00.082Z,102059.82
2019-04-10T18:29:35.070Z,102066.94
2019-04-10T18:32:07.721Z,102061.59
2019-04-10T18:34:40.366Z,102068.21
2019-04-10T18:37:15.387Z,102072.62
2019-04-10T18:39:45.016Z,102069.44
2019-04-10T18:42:17.290Z,102074.31
2019-04-10T18:44:49.089Z,102073.75
2019-04-10T18:47:21.821Z,102077.78
2019-04-10T18:49:54.011Z,102079.66
2019-04-10T18:52:25.532Z,102084.12
2019-04-10T18:54:57.047Z,102085.45
2019-04-10T18:57:32.339Z,102086.39
2019-04-10T19:00:26.251Z,102088.13
2019-04-10T19:03:23.549Z,102089.94
2019-04-10T19:05:58.943Z,102100.09
2019-04-10T19:08:30.889Z,102096.11
2019-04-10T19:11:16.838Z,102101.51
2019-04-10T19:13:35.101Z,102105.91
2019-04-10T19:16:08.918Z,102108.59
2019-04-10T19:18:41.247Z,102116.11
2019-04-10T19:21:13.794Z,102119.73
2019-04-10T19:23:45.685Z,102117.13
2019-04-10T19:26:21.281Z,102120.22
2019-04-10T19:28:52.971Z,102125.56
2019-04-10T19:31:24.754Z,102120.27
2019-04-10T19:33:56.990Z,102124.63
2019-04-10T19:36:28.339Z,102121.96
2019-04-10T19:39:00.096Z,102125.95
2019-04-10T19:41:36.202Z,102129.91
2019-04-10T19:44:04.942Z,102131.72
2019-04-10T19:46:36.228Z,102127.28
2019-04-10T19:49:08.246Z,102132.13
2019-04-10T19:51:40.616Z,102129.09
2019-04-10T19:54:13.605Z,102125.05
2019-04-10T19:56:45.032Z,102135.27
2019-04-10T19:59:16.707Z,102130.81
2019-04-10T20:01:48.534Z,102138.34
2019-04-10T20:04:20.718Z,102139.27
2019-04-10T20:06:52.315Z,102141.85
2019-04-10T20:09:24.261Z,102138.86
2019-04-10T20:11:57.669Z,102147.25
2019-04-10T20:14:28.660Z,102140.27
2019-04-10T20:17:00.072Z,102149.16
2019-04-10T20:19:31.401Z,102153.66
2019-04-10T20:22:04.054Z,102156.00
2019-04-10T20:24:36.515Z,102160.01
2019-04-10T20:27:09.833Z,102156.48
2019-04-10T20:29:43.450Z,102167.66
2019-04-10T20:32:15.662Z,102169.89
2019-04-10T20:34:47.544Z,102171.64
2019-04-10T20:37:18.945Z,102163.67
2019-04-10T20:39:50.151Z,102172.06
2019-04-10T20:42:22.504Z,102175.62
2019-04-10T20:44:54.595Z,102178.70
2019-04-10T20:47:26.718Z,102172.52
2019-04-10T20:49:59.496Z,102179.56
2019-04-10T20:52:30.854Z,102180.91
2019-04-10T20:55:02.159Z,102181.77
2019-04-10T20:57:33.390Z,102180.84
2019-04-10T21:00:07.355Z,102183.95
2019-04-10T21:02:38.868Z,102191.45
2019-04-10T21:05:11.963Z,102188.31
2019-04-10T21:07:43.945Z,102190.55
2019-04-10T21:10:17.118Z,102190.99
2019-04-10T21:12:50.448Z,102194.08
2019-04-10T21:15:21.724Z,102189.16
2019-04-10T21:17:52.931Z,102191.82
2019-04-10T21:20:25.647Z,102192.66
2019-04-10T21:22:57.703Z,102187.82
2019-04-10T21:25:28.976Z,102191.75
2019-04-10T21:28:04.739Z,102195.27
2019-04-10T21:31:03.698Z,102201.84
2019-04-10T21:33:56.855Z,102188.09
2019-04-10T21:36:29.926Z,102193.03
2019-04-10T21:39:01.496Z,102193.41
2019-04-10T21:41:34.713Z,102192.54
2019-04-10T21:44:06.410Z,102189.42
2019-04-10T21:46:38.815Z,102194.72
2019-04-10T21:49:11.431Z,102188.57
2019-04-10T21:51:44.841Z,102190.25
2019-04-10T21:54:18.505Z,102194.62
2019-04-10T21:56:49.824Z,102195.52
2019-04-10T21:59:22.552Z,102200.37
2019-04-10T22:01:54.927Z,102200.39
2019-04-10T22:04:27.283Z,102203.50
2019-04-10T22:07:16.116Z,102203.02
2019-04-10T22:09:59.873Z,102204.82
2019-04-10T22:12:38.168Z,102201.28
2019-04-10T22:15:12.830Z,102199.97
2019-04-10T22:17:44.612Z,102205.75
2019-04-10T22:20:15.902Z,102207.89
2019-04-10T22:22:47.173Z,102205.59
2019-04-10T22:25:19.523Z,102210.05
2019-04-10T22:27:52.105Z,102208.75
2019-04-10T22:30:23.408Z,102207.84
2019-04-10T22:32:55.630Z,102207.05
2019-04-10T22:35:27.807Z,102204.81
2019-04-10T22:38:00.289Z,102209.75
2019-04-10T22:40:31.981Z,102215.06
2019-04-10T22:43:03.685Z,102215.05
2019-04-10T22:45:36.018Z,102215.09
2019-04-10T22:48:14.720Z,102216.77
2019-04-10T22:50:47.120Z,102223.09
2019-04-10T22:53:19.349Z,102222.66
2019-04-10T22:55:50.920Z,102215.94
2019-04-10T22:58:22.917Z,102213.23
2019-04-10T23:00:54.169Z,102228.75
2019-04-10T23:03:25.527Z,102223.91
2019-04-10T23:05:56.830Z,102221.25
2019-04-10T23:08:28.077Z,102223.42
2019-04-10T23:10:59.552Z,102224.77
2019-04-10T23:13:30.759Z,102226.06
2019-04-10T23:16:02.081Z,102225.20
2019-04-10T23:18:33.822Z,102227.53
2019-04-10T23:21:06.115Z,102224.40
2019-04-10T23:23:37.701Z,102229.23
2019-04-10T23:26:09.245Z,102223.99
2019-04-10T23:28:40.598Z,102216.92
2019-04-10T23:31:12.882Z,102215.09
2019-04-10T23:33:44.463Z,102222.17
2019-04-10T23:36:16.074Z,102223.06
2019-04-10T23:38:48.047Z,102227.00
2019-04-10T23:41:21.193Z,102222.04
2019-04-10T23:43:53.582Z,102216.27
2019-04-10T23:46:24.840Z,102217.94
2019-04-10T23:48:57.228Z,102219.66
2019-04-10T23:51:29.374Z,102217.39
2019-04-10T23:54:00.924Z,102220.44
2019-04-10T23:56:32.893Z,102218.24
2019-04-10T23:59:04.570Z,102223.64
